createdAt,value
2016-11-26T00:00:03.774Z,51.41
2016-11-26T00:01:04.106Z,51.41
2016-11-26T00:02:04.127Z,51.41
2016-11-26T00:03:04.159Z,51.22
2016-11-26T00:04:04.244Z,51.61
2016-11-26T00:05:03.925Z,51.8
2016-11-26T00:06:04.246Z,51.51
2016-11-26T00:07:04.270Z,51.41
2016-11-26T00:08:04.299Z,51.61
2016-11-26T00:09:04.328Z,52.09
2016-11-26T00:10:04.045Z,51.8
2016-11-26T00:11:04.384Z,51.87
2016-11-26T00:12:04.099Z,51.8
2016-11-26T00:13:04.431Z,51.89
2016-11-26T00:14:04.460Z,51.89
2016-11-26T00:15:04.484Z,51.97
2016-11-26T00:16:04.213Z,52.06
2016-11-26T00:17:04.238Z,51.99
2016-11-26T00:18:04.573Z,52.09
2016-11-26T00:19:04.604Z,51.7
2016-11-26T00:20:04.328Z,51.99
2016-11-26T00:21:04.354Z,51.77
2016-11-26T00:22:04.686Z,51.61
2016-11-26T00:23:04.422Z,51.99
2016-11-26T00:24:04.743Z,51.48
2016-11-26T00:25:04.766Z,51.68
2016-11-26T00:26:04.792Z,51.58
2016-11-26T00:27:04.835Z,51.58
2016-11-26T00:28:04.850Z,51.87
2016-11-26T00:29:04.879Z,51.68
2016-11-26T00:30:04.904Z,51.68
2016-11-26T00:31:04.945Z,51.58
2016-11-26T00:32:04.961Z,51.68
2016-11-26T00:33:04.986Z,51.68
2016-11-26T00:34:04.719Z,51.68
2016-11-26T00:35:05.047Z,51.68
2016-11-26T00:36:05.080Z,51.68
2016-11-26T00:37:05.108Z,51.68
2016-11-26T00:38:04.832Z,51.77
2016-11-26T00:39:05.166Z,51.58
2016-11-26T00:40:04.883Z,51.68
2016-11-26T00:41:04.909Z,51.77
2016-11-26T00:42:04.940Z,51.77
2016-11-26T00:43:05.280Z,51.48
2016-11-26T00:44:04.997Z,51.48
2016-11-26T00:45:05.023Z,51.58
2016-11-26T00:46:05.354Z,51.58
2016-11-26T00:47:05.079Z,51.48
2016-11-26T00:48:05.103Z,51.58
2016-11-26T00:49:05.132Z,51.48
2016-11-26T00:50:05.462Z,51.48
2016-11-26T00:51:05.191Z,51.58
2016-11-26T00:52:05.218Z,51.58
2016-11-26T00:53:05.547Z,51.77
2016-11-26T00:54:05.275Z,51.58
2016-11-26T00:55:05.297Z,51.68
2016-11-26T00:56:05.330Z,51.77
2016-11-26T00:57:05.658Z,51.77
2016-11-26T00:58:05.691Z,51.77
2016-11-26T00:59:05.720Z,51.77
2016-11-26T01:00:05.739Z,51.77
2016-11-26T01:01:05.464Z,51.39
2016-11-26T01:02:05.811Z,51.68
2016-11-26T01:03:05.527Z,51.58
2016-11-26T01:04:05.550Z,51.48
2016-11-26T01:05:05.889Z,51.68
2016-11-26T01:06:05.904Z,51.68
2016-11-26T01:07:05.942Z,51.48
2016-11-26T01:08:05.658Z,52.06
2016-11-26T01:09:05.986Z,51.68
2016-11-26T01:10:05.747Z,51.77
2016-11-26T01:11:05.744Z,51.68
2016-11-26T01:12:06.081Z,51.68
2016-11-26T01:13:05.799Z,51.77
2016-11-26T01:14:05.822Z,51.68
2016-11-26T01:15:06.163Z,51.87
2016-11-26T01:16:06.209Z,51.77
2016-11-26T01:17:06.217Z,51.77
2016-11-26T01:18:06.243Z,52.06
2016-11-26T01:19:05.970Z,51.58
2016-11-26T01:20:05.994Z,51.68
2016-11-26T01:21:06.023Z,51.77
2016-11-26T01:22:06.048Z,51.87
2016-11-26T01:23:06.085Z,51.77
2016-11-26T01:24:06.109Z,51.87
2016-11-26T01:25:06.454Z,51.68
2016-11-26T01:26:06.463Z,51.77
2016-11-26T01:27:06.493Z,51.87
2016-11-26T01:28:06.220Z,51.77
2016-11-26T01:29:06.545Z,51.77
2016-11-26T01:30:06.274Z,51.77
2016-11-26T01:31:06.299Z,51.68
2016-11-26T01:32:06.332Z,51.87
2016-11-26T01:33:06.687Z,51.77
2016-11-26T01:34:06.681Z,51.68
2016-11-26T01:35:06.716Z,51.77
2016-11-26T01:36:06.739Z,51.68
2016-11-26T01:37:06.472Z,51.77
2016-11-26T01:38:06.500Z,51.68
2016-11-26T01:39:06.824Z,51.77
2016-11-26T01:40:06.554Z,51.77
2016-11-26T01:41:06.878Z,51.68
2016-11-26T01:42:06.905Z,51.68
2016-11-26T01:43:06.935Z,51.87
2016-11-26T01:44:06.660Z,51.68
2016-11-26T01:45:06.684Z,51.77
2016-11-26T01:46:07.017Z,51.77
2016-11-26T01:47:06.746Z,51.77
2016-11-26T01:48:06.767Z,51.77
2016-11-26T01:49:06.792Z,51.77
2016-11-26T01:50:07.131Z,51.77
2016-11-26T01:51:07.161Z,51.68
2016-11-26T01:52:07.181Z,51.77
2016-11-26T01:53:06.906Z,51.77
2016-11-26T01:54:06.935Z,51.77
2016-11-26T01:55:07.268Z,51.48
2016-11-26T01:56:06.986Z,51.58
2016-11-26T01:57:07.013Z,51.68
2016-11-26T01:58:07.046Z,51.48
2016-11-26T01:59:07.382Z,51.68
2016-11-26T02:00:07.099Z,51.68
2016-11-26T02:01:07.424Z,51.68
2016-11-26T02:02:07.465Z,51.58
2016-11-26T02:03:07.489Z,51.58
2016-11-26T02:04:07.523Z,51.68
2016-11-26T02:05:07.239Z,51.65
2016-11-26T02:06:07.264Z,51.77
2016-11-26T02:07:07.296Z,51.68
2016-11-26T02:08:07.321Z,51.68
2016-11-26T02:09:07.655Z,51.68
2016-11-26T02:10:07.687Z,51.68
2016-11-26T02:11:07.413Z,51.68
2016-11-26T02:12:07.739Z,51.77
2016-11-26T02:13:07.762Z,51.56
2016-11-26T02:14:07.493Z,51.65
2016-11-26T02:15:07.512Z,51.68
2016-11-26T02:16:07.539Z,51.65
2016-11-26T02:17:07.871Z,51.68
2016-11-26T02:18:07.610Z,51.65
2016-11-26T02:19:07.925Z,51.65
2016-11-26T02:20:07.953Z,51.68
2016-11-26T02:21:07.986Z,51.65
2016-11-26T02:22:08.011Z,51.65
2016-11-26T02:23:07.740Z,51.68
2016-11-26T02:24:08.069Z,51.65
2016-11-26T02:25:08.101Z,51.65
2016-11-26T02:26:08.122Z,51.36
2016-11-26T02:27:07.854Z,52.23
2016-11-26T02:28:08.183Z,51.65
2016-11-26T02:29:08.205Z,51.75
2016-11-26T02:30:08.233Z,51.46
2016-11-26T02:31:08.261Z,52.04
2016-11-26T02:32:07.990Z,52.04
2016-11-26T02:33:08.011Z,51.75
2016-11-26T02:34:08.044Z,51.94
2016-11-26T02:35:08.068Z,51.56
2016-11-26T02:36:08.089Z,51.84
2016-11-26T02:37:08.126Z,52.04
2016-11-26T02:38:08.472Z,51.46
2016-11-26T02:39:08.478Z,52.04
2016-11-26T02:40:08.204Z,52.04
2016-11-26T02:41:08.228Z,51.84
2016-11-26T02:42:08.570Z,52.13
2016-11-26T02:43:08.285Z,51.56
2016-11-26T02:44:08.616Z,52.13
2016-11-26T02:45:08.347Z,52.04
2016-11-26T02:46:08.365Z,51.75
2016-11-26T02:47:08.393Z,51.46
2016-11-26T02:48:08.425Z,51.84
2016-11-26T02:49:08.750Z,52.04
2016-11-26T02:50:08.479Z,52.04
2016-11-26T02:51:08.504Z,51.75
2016-11-26T02:52:08.833Z,51.75
2016-11-26T02:53:08.565Z,51.56
2016-11-26T02:54:08.920Z,51.75
2016-11-26T02:55:08.918Z,51.84
2016-11-26T02:56:08.943Z,51.84
2016-11-26T02:57:08.975Z,51.75
2016-11-26T02:58:08.701Z,51.84
2016-11-26T02:59:08.726Z,52.23
2016-11-26T03:00:09.058Z,52.04
2016-11-26T03:01:09.083Z,52.04
2016-11-26T03:02:09.116Z,52.04
2016-11-26T03:03:08.837Z,52.23
2016-11-26T03:04:09.169Z,52.04
2016-11-26T03:05:08.890Z,51.94
2016-11-26T03:06:09.227Z,51.94
2016-11-26T03:07:09.247Z,51.94
2016-11-26T03:08:08.977Z,51.84
2016-11-26T03:09:09.317Z,51.84
2016-11-26T03:10:09.338Z,51.94
2016-11-26T03:11:09.358Z,51.94
2016-11-26T03:12:09.091Z,51.94
2016-11-26T03:13:09.420Z,51.94
2016-11-26T03:14:09.444Z,51.94
2016-11-26T03:15:09.465Z,51.94
2016-11-26T03:16:09.502Z,52.04
2016-11-26T03:17:09.527Z,51.94
2016-11-26T03:18:09.255Z,51.94
2016-11-26T03:19:09.272Z,51.94
2016-11-26T03:20:09.304Z,52.04
2016-11-26T03:21:09.646Z,52.04
2016-11-26T03:22:09.357Z,52.33
2016-11-26T03:23:09.691Z,52.13
2016-11-26T03:24:09.412Z,52.13
2016-11-26T03:25:09.749Z,52.04
2016-11-26T03:26:09.779Z,52.04
2016-11-26T03:27:09.499Z,52.04
2016-11-26T03:28:09.526Z,52.13
2016-11-26T03:29:09.559Z,52.33
2016-11-26T03:30:09.884Z,52.23
2016-11-26T03:31:09.903Z,52.42
2016-11-26T03:32:09.641Z,52.13
2016-11-26T03:33:09.662Z,52.04
2016-11-26T03:34:10.003Z,52.23
2016-11-26T03:35:09.716Z,52.23
2016-11-26T03:36:09.744Z,52.04
2016-11-26T03:37:10.077Z,52.33
2016-11-26T03:38:10.114Z,52.04
2016-11-26T03:39:09.831Z,52.33
2016-11-26T03:40:10.159Z,52.33
2016-11-26T03:41:09.880Z,52.33
2016-11-26T03:42:09.909Z,52.33
2016-11-26T03:43:10.237Z,52.23
2016-11-26T03:44:09.970Z,52.23
2016-11-26T03:45:10.307Z,52.42
2016-11-26T03:46:10.024Z,52.04
2016-11-26T03:47:10.344Z,52.23
2016-11-26T03:48:10.385Z,52.23
2016-11-26T03:49:10.110Z,52.23
2016-11-26T03:50:10.438Z,52.42
2016-11-26T03:51:10.163Z,52.42
2016-11-26T03:52:10.488Z,52.42
2016-11-26T03:53:10.525Z,52.42
2016-11-26T03:54:10.545Z,52.23
2016-11-26T03:55:10.278Z,52.23
2016-11-26T03:56:10.587Z,52.42
2016-11-26T03:57:10.324Z,52.13
2016-11-26T03:58:10.353Z,52.23
2016-11-26T03:59:10.685Z,52.23
2016-11-26T04:00:10.406Z,52.42
2016-11-26T04:01:10.738Z,52.42
2016-11-26T04:02:10.771Z,52.42
2016-11-26T04:03:10.788Z,52.23
2016-11-26T04:04:10.816Z,52.04
2016-11-26T04:05:10.851Z,52.23
2016-11-26T04:06:10.566Z,52.42
2016-11-26T04:07:10.603Z,52.13
2016-11-26T04:08:10.631Z,52.52
2016-11-26T04:09:10.956Z,52.23
2016-11-26T04:10:10.676Z,52.23
2016-11-26T04:11:10.713Z,52.04
2016-11-26T04:12:10.727Z,52.13
2016-11-26T04:13:10.767Z,52.23
2016-11-26T04:14:11.091Z,52.04
2016-11-26T04:15:10.816Z,52.04
2016-11-26T04:16:10.845Z,52.04
2016-11-26T04:17:10.869Z,52.23
2016-11-26T04:18:11.194Z,52.04
2016-11-26T04:19:11.236Z,52.04
2016-11-26T04:20:10.952Z,52.33
2016-11-26T04:21:11.284Z,52.13
2016-11-26T04:22:11.009Z,52.04
2016-11-26T04:23:11.038Z,52.13
2016-11-26T04:24:11.401Z,52.04
2016-11-26T04:25:11.091Z,52.04
2016-11-26T04:26:11.121Z,52.2
2016-11-26T04:27:11.178Z,52.23
2016-11-26T04:28:11.478Z,52.33
2016-11-26T04:29:11.507Z,52.33
2016-11-26T04:30:11.531Z,52.13
2016-11-26T04:31:11.552Z,52.23
2016-11-26T04:32:11.289Z,52.23
2016-11-26T04:33:11.618Z,52.23
2016-11-26T04:34:11.338Z,52.13
2016-11-26T04:35:11.664Z,52.13
2016-11-26T04:36:11.700Z,52.13
2016-11-26T04:37:11.425Z,51.94
2016-11-26T04:38:11.749Z,52.04
2016-11-26T04:39:11.774Z,52.04
2016-11-26T04:40:11.799Z,52.13
2016-11-26T04:41:11.839Z,52.13
2016-11-26T04:42:11.856Z,52.04
2016-11-26T04:43:11.889Z,52.04
2016-11-26T04:44:11.614Z,51.84
2016-11-26T04:45:11.643Z,52.13
2016-11-26T04:46:11.979Z,52.13
2016-11-26T04:47:12.004Z,52.23
2016-11-26T04:48:11.726Z,52.23
2016-11-26T04:49:11.749Z,52.23
2016-11-26T04:50:12.080Z,52.23
2016-11-26T04:51:12.111Z,52.13
2016-11-26T04:52:11.832Z,52.2
2016-11-26T04:53:12.169Z,52.23
2016-11-26T04:54:12.187Z,52.23
2016-11-26T04:55:12.230Z,52.42
2016-11-26T04:56:12.247Z,52.13
2016-11-26T04:57:12.271Z,52.2
2016-11-26T04:58:12.300Z,52.04
2016-11-26T04:59:12.025Z,52.23
2016-11-26T05:00:12.354Z,52.11
2016-11-26T05:01:12.382Z,52.2
2016-11-26T05:02:12.403Z,52.13
2016-11-26T05:03:12.439Z,52.13
2016-11-26T05:04:12.165Z,52.2
2016-11-26T05:05:12.490Z,52.13
2016-11-26T05:06:12.526Z,52.23
2016-11-26T05:07:12.547Z,52.23
2016-11-26T05:08:12.276Z,52.23
2016-11-26T05:09:12.600Z,52.23
2016-11-26T05:10:12.330Z,52.33
2016-11-26T05:11:12.351Z,52.23
2016-11-26T05:12:12.679Z,52.4
2016-11-26T05:13:12.403Z,52.33
2016-11-26T05:14:12.744Z,52.2
2016-11-26T05:15:12.765Z,52.2
2016-11-26T05:16:12.782Z,52.3
2016-11-26T05:17:12.814Z,52.2
2016-11-26T05:18:12.543Z,52.33
2016-11-26T05:19:12.576Z,52.2
2016-11-26T05:20:12.593Z,52.33
2016-11-26T05:21:12.627Z,52.3
2016-11-26T05:22:12.953Z,52.4
2016-11-26T05:23:12.679Z,52.42
2016-11-26T05:24:12.704Z,52.3
2016-11-26T05:25:13.044Z,52.23
2016-11-26T05:26:12.761Z,52.2
2016-11-26T05:27:13.094Z,52.01
2016-11-26T05:28:13.118Z,52.3
2016-11-26T05:29:12.841Z,52.3
2016-11-26T05:30:13.175Z,52.13
2016-11-26T05:31:13.201Z,52.01
2016-11-26T05:32:12.925Z,52.11
2016-11-26T05:33:12.958Z,52.01
2016-11-26T05:34:12.979Z,52.11
2016-11-26T05:35:13.004Z,52.2
2016-11-26T05:36:13.031Z,51.92
2016-11-26T05:37:13.065Z,52.13
2016-11-26T05:38:13.086Z,52.2
2016-11-26T05:39:13.425Z,52.13
2016-11-26T05:40:13.143Z,52.13
2016-11-26T05:41:13.477Z,51.92
2016-11-26T05:42:13.512Z,52.01
2016-11-26T05:43:13.538Z,52.13
2016-11-26T05:44:13.550Z,52.13
2016-11-26T05:45:13.579Z,52.13
2016-11-26T05:46:13.309Z,52.23
2016-11-26T05:47:13.636Z,52.33
2016-11-26T05:48:13.657Z,52.33
2016-11-26T05:49:13.394Z,52.33
2016-11-26T05:50:13.728Z,52.33
2016-11-26T05:51:13.747Z,52.33
2016-11-26T05:52:13.469Z,52.33
2016-11-26T05:53:13.804Z,52.13
2016-11-26T05:54:13.834Z,52.13
2016-11-26T05:55:13.858Z,52.42
2016-11-26T05:56:13.885Z,52.23
2016-11-26T05:57:13.908Z,52.33
2016-11-26T05:58:13.945Z,51.94
2016-11-26T05:59:13.961Z,51.84
2016-11-26T06:00:13.690Z,51.75
2016-11-26T06:01:14.019Z,52.13
2016-11-26T06:02:14.051Z,51.56
2016-11-26T06:03:14.071Z,51.75
2016-11-26T06:04:14.105Z,51.65
2016-11-26T06:05:14.137Z,51.65
2016-11-26T06:06:14.154Z,51.84
2016-11-26T06:07:14.179Z,51.75
2016-11-26T06:08:14.216Z,51.65
2016-11-26T06:09:14.241Z,51.75
2016-11-26T06:10:14.273Z,51.75
2016-11-26T06:11:13.994Z,51.84
2016-11-26T06:12:14.015Z,51.75
2016-11-26T06:13:14.355Z,51.84
2016-11-26T06:14:14.375Z,51.75
2016-11-26T06:15:14.400Z,51.75
2016-11-26T06:16:14.133Z,51.56
2016-11-26T06:17:14.454Z,51.75
2016-11-26T06:18:14.486Z,51.58
2016-11-26T06:19:14.211Z,51.56
2016-11-26T06:20:14.545Z,51.48
2016-11-26T06:21:14.269Z,51.48
2016-11-26T06:22:14.289Z,51.68
2016-11-26T06:23:14.625Z,51.58
2016-11-26T06:24:14.650Z,51.58
2016-11-26T06:25:14.679Z,51.68
2016-11-26T06:26:14.704Z,51.77
2016-11-26T06:27:14.741Z,51.87
2016-11-26T06:28:14.758Z,52.06
2016-11-26T06:29:14.499Z,51.87
2016-11-26T06:30:14.819Z,52.06
2016-11-26T06:31:14.539Z,51.39
2016-11-26T06:32:14.868Z,51.77
2016-11-26T06:33:14.892Z,51.39
2016-11-26T06:34:14.622Z,51.39
2016-11-26T06:35:14.648Z,51.39
2016-11-26T06:36:14.993Z,51.77
2016-11-26T06:37:15.011Z,51.58
2016-11-26T06:38:15.041Z,51.39
2016-11-26T06:39:14.757Z,51.2
2016-11-26T06:40:14.786Z,51.2
2016-11-26T06:41:14.819Z,51.39
2016-11-26T06:42:15.147Z,51.58
2016-11-26T06:43:15.176Z,51.58
2016-11-26T06:44:15.197Z,51.1
2016-11-26T06:45:15.233Z,51.2
2016-11-26T06:46:15.258Z,51.29
2016-11-26T06:47:15.303Z,51.29
2016-11-26T06:48:15.312Z,51.29
2016-11-26T06:49:15.035Z,51.1
2016-11-26T06:50:15.369Z,51.1
2016-11-26T06:51:15.393Z,51.29
2016-11-26T06:52:15.123Z,51.2
2016-11-26T06:53:15.147Z,51.29
2016-11-26T06:54:15.488Z,51.1
2016-11-26T06:55:15.512Z,51.1
2016-11-26T06:56:15.230Z,51.61
2016-11-26T06:57:15.585Z,51.29
2016-11-26T06:58:15.286Z,51.39
2016-11-26T06:59:15.318Z,51.48
2016-11-26T07:00:15.340Z,51.2
2016-11-26T07:01:15.368Z,51.1
2016-11-26T07:02:15.399Z,51.1
2016-11-26T07:03:15.418Z,51.58
2016-11-26T07:04:15.763Z,51.58
2016-11-26T07:05:15.484Z,51.48
2016-11-26T07:06:15.803Z,51.39
2016-11-26T07:07:15.845Z,51
2016-11-26T07:08:15.557Z,51.29
2016-11-26T07:09:15.890Z,50.81
2016-11-26T07:10:15.922Z,51.1
2016-11-26T07:11:15.647Z,50.9
2016-11-26T07:12:15.974Z,50.81
2016-11-26T07:13:16.006Z,50.71
2016-11-26T07:14:16.037Z,50.9
2016-11-26T07:15:15.756Z,50.81
2016-11-26T07:16:16.083Z,50.81
2016-11-26T07:17:15.812Z,50.9
2016-11-26T07:18:16.148Z,50.71
2016-11-26T07:19:15.868Z,50.81
2016-11-26T07:20:16.193Z,50.81
2016-11-26T07:21:16.233Z,50.81
2016-11-26T07:22:15.955Z,50.71
2016-11-26T07:23:15.979Z,50.71
2016-11-26T07:24:16.001Z,50.9
2016-11-26T07:25:16.333Z,50.81
2016-11-26T07:26:16.362Z,50.81
2016-11-26T07:27:16.086Z,50.81
2016-11-26T07:28:16.111Z,50.81
2016-11-26T07:29:16.443Z,51.1
2016-11-26T07:30:16.176Z,50.9
2016-11-26T07:31:16.504Z,50.62
2016-11-26T07:32:16.226Z,50.9
2016-11-26T07:33:16.555Z,50.9
2016-11-26T07:34:16.580Z,50.81
2016-11-26T07:35:16.312Z,50.9
2016-11-26T07:36:16.637Z,51
2016-11-26T07:37:16.361Z,50.71
2016-11-26T07:38:16.701Z,50.9
2016-11-26T07:39:16.723Z,50.81
2016-11-26T07:40:16.747Z,51.39
2016-11-26T07:41:16.477Z,50.9
2016-11-26T07:42:16.502Z,51.29
2016-11-26T07:43:16.830Z,50.9
2016-11-26T07:44:16.555Z,50.9
2016-11-26T07:45:16.587Z,51
2016-11-26T07:46:16.915Z,51.29
2016-11-26T07:47:16.945Z,50.9
2016-11-26T07:48:16.969Z,51.29
2016-11-26T07:49:16.698Z,51
2016-11-26T07:50:17.028Z,50.81
2016-11-26T07:51:16.758Z,51.1
2016-11-26T07:52:17.088Z,51.1
2016-11-26T07:53:16.809Z,51.1
2016-11-26T07:54:16.834Z,51.39
2016-11-26T07:55:17.179Z,51.39
2016-11-26T07:56:17.190Z,51.48
2016-11-26T07:57:16.923Z,51.87
2016-11-26T07:58:16.953Z,51.87
2016-11-26T07:59:17.277Z,52.16
2016-11-26T08:00:17.303Z,51.48
2016-11-26T08:01:17.027Z,51.2
2016-11-26T08:02:17.064Z,51.39
2016-11-26T08:03:17.084Z,51.2
2016-11-26T08:04:17.109Z,51.1
2016-11-26T08:05:17.441Z,51.1
2016-11-26T08:06:17.474Z,51.1
2016-11-26T08:07:17.500Z,51.1
2016-11-26T08:08:17.220Z,51.1
2016-11-26T08:09:17.558Z,51.29
2016-11-26T08:10:17.582Z,51.1
2016-11-26T08:11:17.610Z,51.39
2016-11-26T08:12:17.631Z,51
2016-11-26T08:13:17.663Z,51.58
2016-11-26T08:14:17.700Z,51.29
2016-11-26T08:15:17.717Z,51.58
2016-11-26T08:16:17.445Z,51.48
2016-11-26T08:17:17.473Z,51.2
2016-11-26T08:18:17.804Z,51.39
2016-11-26T08:19:17.835Z,51.39
2016-11-26T08:20:17.864Z,51.77
2016-11-26T08:21:17.594Z,51.39
2016-11-26T08:22:17.910Z,51.48
2016-11-26T08:23:17.643Z,51.1
2016-11-26T08:24:17.668Z,51.39
2016-11-26T08:25:18.004Z,51.39
2016-11-26T08:26:18.028Z,51.39
2016-11-26T08:27:18.056Z,51.58
2016-11-26T08:28:18.083Z,52.06
2016-11-26T08:29:18.103Z,51.87
2016-11-26T08:30:17.836Z,51.87
2016-11-26T08:31:18.169Z,52.16
2016-11-26T08:32:18.197Z,51.48
2016-11-26T08:33:17.913Z,51.68
2016-11-26T08:34:18.255Z,51.58
2016-11-26T08:35:17.976Z,51.77
2016-11-26T08:36:18.301Z,51.77
2016-11-26T08:37:18.029Z,51.77
2016-11-26T08:38:18.058Z,52.55
2016-11-26T08:39:18.383Z,52.35
2016-11-26T08:40:18.113Z,52.06
2016-11-26T08:41:18.145Z,52.25
2016-11-26T08:42:18.165Z,52.35
2016-11-26T08:43:18.505Z,52.35
2016-11-26T08:44:18.530Z,52.45
2016-11-26T08:45:18.260Z,52.35
2016-11-26T08:46:18.580Z,52.06
2016-11-26T08:47:18.305Z,52.25
2016-11-26T08:48:18.329Z,52.25
2016-11-26T08:49:18.666Z,52.25
2016-11-26T08:50:18.387Z,52.06
2016-11-26T08:51:18.724Z,52.06
2016-11-26T08:52:18.748Z,52.19
2016-11-26T08:53:18.777Z,52.55
2016-11-26T08:54:18.805Z,52.25
2016-11-26T08:55:18.830Z,52.35
2016-11-26T08:56:18.859Z,52.73
2016-11-26T08:57:18.580Z,52.83
2016-11-26T08:58:18.908Z,53.05
2016-11-26T08:59:18.941Z,52.64
2016-11-26T09:00:18.666Z,52.57
2016-11-26T09:01:18.987Z,52.57
2016-11-26T09:02:19.021Z,53.05
2016-11-26T09:03:19.048Z,52.67
2016-11-26T09:04:19.084Z,52.64
2016-11-26T09:05:19.105Z,52.67
2016-11-26T09:06:18.830Z,52.67
2016-11-26T09:07:18.858Z,52.76
2016-11-26T09:08:19.190Z,52.76
2016-11-26T09:09:19.215Z,52.76
2016-11-26T09:10:19.250Z,52.76
2016-11-26T09:11:19.272Z,52.76
2016-11-26T09:12:19.301Z,52.67
2016-11-26T09:13:19.322Z,52.67
2016-11-26T09:14:19.055Z,52.67
2016-11-26T09:15:19.076Z,52.67
2016-11-26T09:16:19.110Z,52.67
2016-11-26T09:17:19.440Z,52.47
2016-11-26T09:18:19.469Z,52.47
2016-11-26T09:19:19.498Z,52.47
2016-11-26T09:20:19.525Z,52.67
2016-11-26T09:21:19.556Z,52.76
2016-11-26T09:22:19.272Z,52.95
2016-11-26T09:23:19.621Z,52.86
2016-11-26T09:24:19.333Z,52.95
2016-11-26T09:25:19.357Z,52.57
2016-11-26T09:26:19.687Z,52.67
2016-11-26T09:27:19.411Z,52.57
2016-11-26T09:28:19.778Z,52.57
2016-11-26T09:29:19.469Z,52.76
2016-11-26T09:30:19.498Z,52.76
2016-11-26T09:31:19.838Z,52.47
2016-11-26T09:32:19.855Z,53.15
2016-11-26T09:33:19.590Z,51.89
2016-11-26T09:34:19.608Z,52.09
2016-11-26T09:35:19.934Z,52.37
2016-11-26T09:36:19.966Z,52.47
2016-11-26T09:37:19.726Z,52.31
2016-11-26T09:38:19.720Z,52.4
2016-11-26T09:39:19.751Z,52.01
2016-11-26T09:40:20.086Z,52.21
2016-11-26T09:41:19.804Z,52.31
2016-11-26T09:42:20.130Z,52.11
2016-11-26T09:43:20.163Z,52.21
2016-11-26T09:44:19.892Z,52.5
2016-11-26T09:45:20.220Z,52.21
2016-11-26T09:46:20.244Z,52.4
2016-11-26T09:47:19.965Z,52.21
2016-11-26T09:48:20.307Z,52.21
2016-11-26T09:49:20.027Z,52.11
2016-11-26T09:50:20.356Z,52.5
2016-11-26T09:51:20.381Z,52.21
2016-11-26T09:52:20.109Z,52.01
2016-11-26T09:53:20.446Z,51.82
2016-11-26T09:54:20.474Z,51.92
2016-11-26T09:55:20.495Z,51.82
2016-11-26T09:56:20.524Z,51.73
2016-11-26T09:57:20.547Z,51.63
2016-11-26T09:58:20.577Z,51.92
2016-11-26T09:59:20.306Z,51.82
2016-11-26T10:00:20.636Z,51.92
2016-11-26T10:01:20.708Z,51.92
2016-11-26T10:02:20.391Z,51.82
2016-11-26T10:03:20.421Z,51.82
2016-11-26T10:04:20.445Z,51.53
2016-11-26T10:05:20.779Z,51.82
2016-11-26T10:06:20.504Z,51.73
2016-11-26T10:07:20.832Z,51.63
2016-11-26T10:08:20.861Z,51.92
2016-11-26T10:09:20.895Z,52.01
2016-11-26T10:10:20.928Z,51.82
2016-11-26T10:11:20.976Z,51.25
2016-11-26T10:12:20.677Z,51.44
2016-11-26T10:13:21.005Z,51.44
2016-11-26T10:14:21.034Z,51.44
2016-11-26T10:15:21.052Z,51.44
2016-11-26T10:16:20.784Z,51.34
2016-11-26T10:17:20.812Z,51.44
2016-11-26T10:18:21.141Z,51.34
2016-11-26T10:19:21.175Z,51.15
2016-11-26T10:20:20.895Z,51.44
2016-11-26T10:21:21.220Z,51.25
2016-11-26T10:22:21.260Z,51.34
2016-11-26T10:23:20.985Z,51.34
2016-11-26T10:24:21.010Z,51.34
2016-11-26T10:25:21.342Z,51.34
2016-11-26T10:26:21.063Z,51.15
2016-11-26T10:27:21.396Z,51.53
2016-11-26T10:28:21.421Z,51.15
2016-11-26T10:29:21.458Z,51.05
2016-11-26T10:30:21.482Z,51.15
2016-11-26T10:31:21.520Z,51.15
2016-11-26T10:32:21.241Z,51.34
2016-11-26T10:33:21.266Z,51.44
2016-11-26T10:34:21.289Z,51.25
2016-11-26T10:35:21.626Z,51.15
2016-11-26T10:36:21.651Z,51.34
2016-11-26T10:37:21.376Z,51.44
2016-11-26T10:38:21.404Z,51.15
2016-11-26T10:39:21.737Z,51.25
2016-11-26T10:40:21.461Z,51.34
2016-11-26T10:41:21.795Z,51.25
2016-11-26T10:42:21.519Z,50.96
2016-11-26T10:43:21.948Z,51.25
2016-11-26T10:44:21.861Z,51.25
2016-11-26T10:45:21.602Z,51.25
2016-11-26T10:46:21.930Z,51.25
2016-11-26T10:47:21.968Z,51.53
2016-11-26T10:48:21.992Z,51.44
2016-11-26T10:49:22.017Z,51.34
2016-11-26T10:50:21.742Z,51.15
2016-11-26T10:51:22.078Z,51.53
2016-11-26T10:52:22.103Z,51.05
2016-11-26T10:53:21.828Z,50.96
2016-11-26T10:54:22.164Z,51.05
2016-11-26T10:55:22.185Z,50.76
2016-11-26T10:56:22.246Z,51.25
2016-11-26T10:57:21.935Z,51.25
2016-11-26T10:58:21.968Z,50.76
2016-11-26T10:59:21.996Z,51.05
2016-11-26T11:00:22.329Z,51.25
2016-11-26T11:01:22.357Z,50.96
2016-11-26T11:02:22.374Z,50.96
2016-11-26T11:03:22.411Z,50.76
2016-11-26T11:04:22.440Z,50.69
2016-11-26T11:05:22.468Z,50.86
2016-11-26T11:06:22.194Z,50.96
2016-11-26T11:07:22.526Z,50.86
2016-11-26T11:08:22.555Z,50.96
2016-11-26T11:09:22.576Z,50.86
2016-11-26T11:10:22.608Z,50.76
2016-11-26T11:11:22.641Z,50.86
2016-11-26T11:12:22.366Z,50.86
2016-11-26T11:13:22.695Z,50.96
2016-11-26T11:14:22.724Z,50.76
2016-11-26T11:15:22.436Z,50.79
2016-11-26T11:16:22.793Z,51.07
2016-11-26T11:17:22.501Z,51.17
2016-11-26T11:18:22.527Z,51.15
2016-11-26T11:19:22.559Z,51.05
2016-11-26T11:20:22.891Z,51.15
2016-11-26T11:21:22.924Z,51.05
2016-11-26T11:22:22.649Z,50.96
2016-11-26T11:23:22.978Z,50.98
2016-11-26T11:24:22.706Z,51.15
2016-11-26T11:25:23.038Z,51.27
2016-11-26T11:26:23.059Z,51.27
2016-11-26T11:27:23.092Z,51.17
2016-11-26T11:28:23.117Z,51.07
2016-11-26T11:29:23.146Z,50.59
2016-11-26T11:30:23.180Z,50.57
2016-11-26T11:31:23.198Z,51.07
2016-11-26T11:32:22.933Z,50.57
2016-11-26T11:33:22.962Z,51.07
2016-11-26T11:34:23.294Z,50.4
2016-11-26T11:35:23.010Z,50.4
2016-11-26T11:36:23.348Z,50.98
2016-11-26T11:37:23.069Z,50.4
2016-11-26T11:38:23.401Z,51.15
2016-11-26T11:39:23.429Z,50.57
2016-11-26T11:40:23.159Z,50.38
2016-11-26T11:41:23.483Z,50.38
2016-11-26T11:42:23.516Z,50.98
2016-11-26T11:43:23.237Z,50.57
2016-11-26T11:44:23.564Z,51.05
2016-11-26T11:45:23.293Z,50.98
2016-11-26T11:46:23.321Z,50.96
2016-11-26T11:47:23.650Z,50.96
2016-11-26T11:48:23.683Z,50.96
2016-11-26T11:49:23.412Z,50.96
2016-11-26T11:50:23.741Z,50.96
2016-11-26T11:51:23.770Z,50.96
2016-11-26T11:52:23.794Z,51.05
2016-11-26T11:53:23.826Z,51.05
2016-11-26T11:54:23.855Z,51.05
2016-11-26T11:55:23.580Z,50.96
2016-11-26T11:56:23.609Z,50.96
2016-11-26T11:57:23.634Z,51.05
2016-11-26T11:58:23.970Z,51.15
2016-11-26T11:59:24.004Z,51.15
2016-11-26T12:00:24.020Z,50.96
2016-11-26T12:01:24.048Z,51.15
2016-11-26T12:02:23.777Z,51.15
2016-11-26T12:03:23.801Z,50.96
2016-11-26T12:04:24.142Z,50.96
2016-11-26T12:05:23.863Z,50.96
2016-11-26T12:06:24.196Z,50.96
2016-11-26T12:07:23.917Z,50.86
2016-11-26T12:08:23.946Z,50.76
2016-11-26T12:09:24.279Z,50.96
2016-11-26T12:10:24.008Z,50.57
2016-11-26T12:11:24.336Z,50.67
2016-11-26T12:12:24.369Z,50.57
2016-11-26T12:13:24.090Z,50.79
2016-11-26T12:14:24.426Z,50.98
2016-11-26T12:15:24.451Z,50.76
2016-11-26T12:16:24.475Z,50.76
2016-11-26T12:17:24.206Z,50.96
2016-11-26T12:18:24.224Z,51.05
2016-11-26T12:19:24.590Z,51.34
2016-11-26T12:20:24.293Z,51.05
2016-11-26T12:21:24.319Z,51.15
2016-11-26T12:22:24.351Z,51.15
2016-11-26T12:23:24.680Z,51.05
2016-11-26T12:24:24.705Z,50.96
2016-11-26T12:25:24.423Z,50.98
2016-11-26T12:26:24.754Z,50.86
2016-11-26T12:27:24.788Z,51.15
2016-11-26T12:28:24.824Z,51.07
2016-11-26T12:29:24.841Z,50.98
2016-11-26T12:30:24.573Z,50.96
2016-11-26T12:31:24.901Z,51.17
2016-11-26T12:32:24.927Z,51.17
2016-11-26T12:33:24.651Z,51.07
2016-11-26T12:34:24.980Z,50.98
2016-11-26T12:35:24.705Z,50.5
2016-11-26T12:36:24.741Z,50.4
2016-11-26T12:37:25.066Z,50.79
2016-11-26T12:38:25.104Z,50.4
2016-11-26T12:39:25.134Z,50.59
2016-11-26T12:40:25.158Z,50.59
2016-11-26T12:41:25.188Z,50.59
2016-11-26T12:42:24.902Z,50.79
2016-11-26T12:43:24.935Z,50.69
2016-11-26T12:44:24.968Z,50.5
2016-11-26T12:45:25.293Z,50.21
2016-11-26T12:46:25.324Z,50.5
2016-11-26T12:47:25.046Z,50.57
2016-11-26T12:48:25.383Z,50.57
2016-11-26T12:49:25.411Z,50.57
2016-11-26T12:50:25.443Z,50.47
2016-11-26T12:51:25.469Z,50.28
2016-11-26T12:52:25.497Z,50.38
2016-11-26T12:53:25.215Z,50.38
2016-11-26T12:54:25.247Z,50.57
2016-11-26T12:55:25.580Z,50.4